sensor_id;sensor_type;location;lat;lon;timestamp;P1;durP1;ratioP1;P2;durP2;ratioP2
27543;SDS011;17996;51.056;3.656;2023-08-20T00:01:38;18.90;;;4.05;;
27543;SDS011;17996;51.056;3.656;2023-08-20T00:04:04;18.60;;;3.72;;
27543;SDS011;17996;51.056;3.656;2023-08-20T00:06:30;12.68;;;3.70;;
27543;SDS011;17996;51.056;3.656;2023-08-20T00:08:56;14.27;;;3.72;;
27543;SDS011;17996;51.056;3.656;2023-08-20T00:11:22;12.60;;;3.60;;
27543;SDS011;17996;51.056;3.656;2023-08-20T00:13:47;10.15;;;3.35;;
27543;SDS011;17996;51.056;3.656;2023-08-20T00:16:13;11.48;;;4.10;;
27543;SDS011;17996;51.056;3.656;2023-08-20T00:18:39;14.75;;;4.25;;
27543;SDS011;17996;51.056;3.656;2023-08-20T00:21:06;16.73;;;4.57;;
27543;SDS011;17996;51.056;3.656;2023-08-20T00:23:34;11.35;;;3.47;;
27543;SDS011;17996;51.056;3.656;2023-08-20T00:26:01;8.63;;;3.28;;
27543;SDS011;17996;51.056;3.656;2023-08-20T00:28:27;21.70;;;4.72;;
27543;SDS011;17996;51.056;3.656;2023-08-20T00:30:53;13.70;;;3.92;;
27543;SDS011;17996;51.056;3.656;2023-08-20T00:33:18;11.98;;;3.28;;
27543;SDS011;17996;51.056;3.656;2023-08-20T00:35:44;14.23;;;3.85;;
27543;SDS011;17996;51.056;3.656;2023-08-20T00:38:10;15.07;;;4.07;;
27543;SDS011;17996;51.056;3.656;2023-08-20T00:40:35;14.63;;;4.18;;
27543;SDS011;17996;51.056;3.656;2023-08-20T00:43:01;11.80;;;3.75;;
27543;SDS011;17996;51.056;3.656;2023-08-20T00:45:27;11.55;;;3.67;;
27543;SDS011;17996;51.056;3.656;2023-08-20T00:47:52;19.92;;;4.82;;
27543;SDS011;17996;51.056;3.656;2023-08-20T00:50:18;17.92;;;4.60;;
27543;SDS011;17996;51.056;3.656;2023-08-20T00:52:45;15.02;;;4.57;;
27543;SDS011;17996;51.056;3.656;2023-08-20T00:55:11;9.88;;;3.67;;
27543;SDS011;17996;51.056;3.656;2023-08-20T00:57:38;13.25;;;4.40;;
27543;SDS011;17996;51.056;3.656;2023-08-20T01:00:04;19.02;;;4.55;;
27543;SDS011;17996;51.056;3.656;2023-08-20T01:02:35;15.00;;;4.20;;
27543;SDS011;17996;51.056;3.656;2023-08-20T01:05:03;16.52;;;4.80;;
27543;SDS011;17996;51.056;3.656;2023-08-20T01:10:59;13.65;;;4.78;;
27543;SDS011;17996;51.056;3.656;2023-08-20T01:12:58;16.65;;;4.80;;
27543;SDS011;17996;51.056;3.656;2023-08-20T01:15:25;12.23;;;4.30;;
27543;SDS011;17996;51.056;3.656;2023-08-20T01:17:51;13.63;;;5.05;;
27543;SDS011;17996;51.056;3.656;2023-08-20T01:20:17;14.07;;;4.13;;
27543;SDS011;17996;51.056;3.656;2023-08-20T01:30:31;16.58;;;5.55;;
27543;SDS011;17996;51.056;3.656;2023-08-20T01:32:58;11.43;;;4.72;;
27543;SDS011;17996;51.056;3.656;2023-08-20T01:35:24;14.63;;;4.40;;
27543;SDS011;17996;51.056;3.656;2023-08-20T01:40:19;16.05;;;4.68;;
27543;SDS011;17996;51.056;3.656;2023-08-20T01:42:45;16.40;;;4.65;;
27543;SDS011;17996;51.056;3.656;2023-08-20T01:45:10;12.60;;;4.28;;
27543;SDS011;17996;51.056;3.656;2023-08-20T01:47:36;12.73;;;3.58;;
27543;SDS011;17996;51.056;3.656;2023-08-20T01:50:02;10.63;;;3.95;;
27543;SDS011;17996;51.056;3.656;2023-08-20T01:52:28;16.45;;;4.28;;
27543;SDS011;17996;51.056;3.656;2023-08-20T01:54:54;16.90;;;4.13;;
27543;SDS011;17996;51.056;3.656;2023-08-20T01:57:20;16.80;;;4.80;;
27543;SDS011;17996;51.056;3.656;2023-08-20T01:59:47;15.50;;;4.20;;
27543;SDS011;17996;51.056;3.656;2023-08-20T02:02:13;12.32;;;4.00;;
27543;SDS011;17996;51.056;3.656;2023-08-20T02:04:39;7.80;;;4.00;;
27543;SDS011;17996;51.056;3.656;2023-08-20T02:07:04;13.63;;;4.45;;
27543;SDS011;17996;51.056;3.656;2023-08-20T02:09:30;10.77;;;4.13;;
27543;SDS011;17996;51.056;3.656;2023-08-20T02:11:56;8.25;;;3.85;;
27543;SDS011;17996;51.056;3.656;2023-08-20T02:14:22;9.23;;;3.33;;
27543;SDS011;17996;51.056;3.656;2023-08-20T02:16:47;12.25;;;3.72;;
27543;SDS011;17996;51.056;3.656;2023-08-20T02:19:13;21.13;;;4.55;;
27543;SDS011;17996;51.056;3.656;2023-08-20T02:21:39;11.50;;;4.05;;
27543;SDS011;17996;51.056;3.656;2023-08-20T02:24:05;11.98;;;4.10;;
27543;SDS011;17996;51.056;3.656;2023-08-20T02:26:32;9.30;;;3.60;;
27543;SDS011;17996;51.056;3.656;2023-08-20T02:28:57;15.40;;;5.38;;
27543;SDS011;17996;51.056;3.656;2023-08-20T02:31:23;14.73;;;3.80;;
27543;SDS011;17996;51.056;3.656;2023-08-20T02:33:49;13.35;;;3.88;;
27543;SDS011;17996;51.056;3.656;2023-08-20T02:36:14;12.98;;;3.72;;
27543;SDS011;17996;51.056;3.656;2023-08-20T02:38:40;15.15;;;4.20;;
27543;SDS011;17996;51.056;3.656;2023-08-20T02:41:06;8.63;;;3.50;;
27543;SDS011;17996;51.056;3.656;2023-08-20T02:43:32;8.32;;;2.97;;
27543;SDS011;17996;51.056;3.656;2023-08-20T02:45:57;10.65;;;3.40;;
27543;SDS011;17996;51.056;3.656;2023-08-20T02:48:23;12.43;;;4.18;;
27543;SDS011;17996;51.056;3.656;2023-08-20T02:50:52;17.20;;;4.07;;
27543;SDS011;17996;51.056;3.656;2023-08-20T02:53:19;9.88;;;3.17;;
27543;SDS011;17996;51.056;3.656;2023-08-20T02:55:47;10.18;;;4.00;;
27543;SDS011;17996;51.056;3.656;2023-08-20T02:58:14;16.50;;;4.78;;
27543;SDS011;17996;51.056;3.656;2023-08-20T03:00:39;9.35;;;3.60;;
27543;SDS011;17996;51.056;3.656;2023-08-20T03:03:06;7.85;;;4.03;;
27543;SDS011;17996;51.056;3.656;2023-08-20T03:05:33;11.77;;;4.00;;
27543;SDS011;17996;51.056;3.656;2023-08-20T03:07:59;11.75;;;4.05;;
27543;SDS011;17996;51.056;3.656;2023-08-20T03:10:28;9.32;;;3.20;;
27543;SDS011;17996;51.056;3.656;2023-08-20T03:12:56;11.77;;;4.20;;
27543;SDS011;17996;51.056;3.656;2023-08-20T03:15:22;11.57;;;3.83;;
27543;SDS011;17996;51.056;3.656;2023-08-20T03:17:47;11.40;;;3.72;;
27543;SDS011;17996;51.056;3.656;2023-08-20T03:20:13;15.20;;;3.63;;
27543;SDS011;17996;51.056;3.656;2023-08-20T03:22:39;8.75;;;2.97;;
27543;SDS011;17996;51.056;3.656;2023-08-20T03:25:05;12.77;;;3.53;;
27543;SDS011;17996;51.056;3.656;2023-08-20T03:27:31;10.25;;;4.03;;
27543;SDS011;17996;51.056;3.656;2023-08-20T03:29:57;11.40;;;3.58;;
27543;SDS011;17996;51.056;3.656;2023-08-20T03:32:23;15.10;;;4.15;;
27543;SDS011;17996;51.056;3.656;2023-08-20T03:34:49;15.13;;;3.85;;
27543;SDS011;17996;51.056;3.656;2023-08-20T03:37:15;8.65;;;3.60;;
27543;SDS011;17996;51.056;3.656;2023-08-20T03:39:41;12.73;;;4.22;;
27543;SDS011;17996;51.056;3.656;2023-08-20T03:42:07;14.75;;;4.03;;
27543;SDS011;17996;51.056;3.656;2023-08-20T03:44:32;13.77;;;3.58;;
27543;SDS011;17996;51.056;3.656;2023-08-20T03:46:58;15.88;;;3.83;;
27543;SDS011;17996;51.056;3.656;2023-08-20T03:49:24;12.98;;;3.75;;
27543;SDS011;17996;51.056;3.656;2023-08-20T03:51:49;11.32;;;3.17;;
27543;SDS011;17996;51.056;3.656;2023-08-20T03:54:15;10.45;;;3.08;;
27543;SDS011;17996;51.056;3.656;2023-08-20T03:56:41;15.13;;;3.65;;
27543;SDS011;17996;51.056;3.656;2023-08-20T03:59:07;10.20;;;3.55;;
27543;SDS011;17996;51.056;3.656;2023-08-20T04:01:33;13.82;;;4.00;;
27543;SDS011;17996;51.056;3.656;2023-08-20T04:04:01;13.68;;;4.25;;
27543;SDS011;17996;51.056;3.656;2023-08-20T04:06:26;17.42;;;3.72;;
27543;SDS011;17996;51.056;3.656;2023-08-20T04:08:52;12.68;;;3.38;;
27543;SDS011;17996;51.056;3.656;2023-08-20T04:11:18;9.18;;;3.00;;
27543;SDS011;17996;51.056;3.656;2023-08-20T04:13:43;6.40;;;3.08;;
27543;SDS011;17996;51.056;3.656;2023-08-20T04:16:10;8.70;;;3.22;;
27543;SDS011;17996;51.056;3.656;2023-08-20T04:18:35;13.23;;;4.35;;
27543;SDS011;17996;51.056;3.656;2023-08-20T04:21:01;11.35;;;4.13;;
27543;SDS011;17996;51.056;3.656;2023-08-20T04:23:27;11.52;;;2.85;;
27543;SDS011;17996;51.056;3.656;2023-08-20T04:25:53;10.95;;;3.28;;
27543;SDS011;17996;51.056;3.656;2023-08-20T04:28:18;11.73;;;3.35;;
27543;SDS011;17996;51.056;3.656;2023-08-20T04:30:44;10.52;;;3.40;;
27543;SDS011;17996;51.056;3.656;2023-08-20T04:33:10;7.60;;;3.28;;
27543;SDS011;17996;51.056;3.656;2023-08-20T04:35:35;7.95;;;2.92;;
27543;SDS011;17996;51.056;3.656;2023-08-20T04:38:01;9.32;;;3.30;;
27543;SDS011;17996;51.056;3.656;2023-08-20T04:40:27;10.02;;;3.20;;
27543;SDS011;17996;51.056;3.656;2023-08-20T04:42:53;8.77;;;3.15;;
27543;SDS011;17996;51.056;3.656;2023-08-20T04:45:19;9.18;;;3.05;;
27543;SDS011;17996;51.056;3.656;2023-08-20T04:47:47;6.38;;;2.63;;
27543;SDS011;17996;51.056;3.656;2023-08-20T04:50:13;10.57;;;2.83;;
27543;SDS011;17996;51.056;3.656;2023-08-20T04:52:39;7.75;;;2.85;;
27543;SDS011;17996;51.056;3.656;2023-08-20T04:55:05;11.60;;;3.47;;
27543;SDS011;17996;51.056;3.656;2023-08-20T04:57:32;7.22;;;2.95;;
27543;SDS011;17996;51.056;3.656;2023-08-20T04:59:59;9.45;;;3.55;;
27543;SDS011;17996;51.056;3.656;2023-08-20T05:02:24;6.07;;;3.13;;
27543;SDS011;17996;51.056;3.656;2023-08-20T05:04:50;6.75;;;2.78;;
27543;SDS011;17996;51.056;3.656;2023-08-20T05:07:16;10.98;;;3.22;;
27543;SDS011;17996;51.056;3.656;2023-08-20T05:09:42;5.57;;;3.03;;
27543;SDS011;17996;51.056;3.656;2023-08-20T05:12:08;8.80;;;3.38;;
27543;SDS011;17996;51.056;3.656;2023-08-20T05:14:34;12.93;;;3.63;;
27543;SDS011;17996;51.056;3.656;2023-08-20T05:16:59;9.63;;;3.30;;
27543;SDS011;17996;51.056;3.656;2023-08-20T05:19:25;7.43;;;2.90;;
27543;SDS011;17996;51.056;3.656;2023-08-20T05:21:51;13.50;;;3.63;;
27543;SDS011;17996;51.056;3.656;2023-08-20T05:24:21;10.50;;;3.67;;
27543;SDS011;17996;51.056;3.656;2023-08-20T05:26:47;9.52;;;3.80;;
27543;SDS011;17996;51.056;3.656;2023-08-20T05:29:28;7.70;;;3.17;;
27543;SDS011;17996;51.056;3.656;2023-08-20T05:31:53;7.35;;;3.83;;
27543;SDS011;17996;51.056;3.656;2023-08-20T05:34:19;7.90;;;3.33;;
27543;SDS011;17996;51.056;3.656;2023-08-20T05:36:45;18.95;;;3.95;;
27543;SDS011;17996;51.056;3.656;2023-08-20T05:39:10;15.82;;;4.75;;
27543;SDS011;17996;51.056;3.656;2023-08-20T05:41:36;11.00;;;3.92;;
27543;SDS011;17996;51.056;3.656;2023-08-20T05:44:01;10.68;;;3.90;;
27543;SDS011;17996;51.056;3.656;2023-08-20T05:46:27;14.88;;;4.07;;
27543;SDS011;17996;51.056;3.656;2023-08-20T05:48:53;11.25;;;4.45;;
27543;SDS011;17996;51.056;3.656;2023-08-20T05:51:18;9.25;;;4.18;;
27543;SDS011;17996;51.056;3.656;2023-08-20T05:53:44;19.23;;;4.68;;
27543;SDS011;17996;51.056;3.656;2023-08-20T05:56:10;10.77;;;4.30;;
27543;SDS011;17996;51.056;3.656;2023-08-20T05:58:36;10.50;;;3.88;;
27543;SDS011;17996;51.056;3.656;2023-08-20T06:01:01;14.48;;;4.00;;
27543;SDS011;17996;51.056;3.656;2023-08-20T06:03:27;18.40;;;4.38;;
27543;SDS011;17996;51.056;3.656;2023-08-20T06:05:53;11.43;;;4.30;;
27543;SDS011;17996;51.056;3.656;2023-08-20T06:08:18;14.27;;;4.45;;
27543;SDS011;17996;51.056;3.656;2023-08-20T06:10:44;10.52;;;4.15;;
27543;SDS011;17996;51.056;3.656;2023-08-20T06:13:09;13.75;;;4.95;;
27543;SDS011;17996;51.056;3.656;2023-08-20T06:15:35;16.83;;;5.03;;
27543;SDS011;17996;51.056;3.656;2023-08-20T06:18:01;14.25;;;5.30;;
27543;SDS011;17996;51.056;3.656;2023-08-20T06:20:26;12.80;;;4.57;;
27543;SDS011;17996;51.056;3.656;2023-08-20T06:22:52;10.95;;;4.38;;
27543;SDS011;17996;51.056;3.656;2023-08-20T06:25:17;16.30;;;4.10;;
27543;SDS011;17996;51.056;3.656;2023-08-20T06:27:43;14.15;;;5.55;;
27543;SDS011;17996;51.056;3.656;2023-08-20T06:30:09;15.23;;;4.40;;
27543;SDS011;17996;51.056;3.656;2023-08-20T06:32:35;12.30;;;4.57;;
27543;SDS011;17996;51.056;3.656;2023-08-20T06:35:00;18.50;;;5.47;;
27543;SDS011;17996;51.056;3.656;2023-08-20T06:37:26;13.40;;;4.70;;
27543;SDS011;17996;51.056;3.656;2023-08-20T06:39:52;15.48;;;4.95;;
27543;SDS011;17996;51.056;3.656;2023-08-20T06:42:17;18.50;;;6.25;;
27543;SDS011;17996;51.056;3.656;2023-08-20T06:44:43;14.98;;;6.22;;
27543;SDS011;17996;51.056;3.656;2023-08-20T06:47:09;16.25;;;5.95;;
27543;SDS011;17996;51.056;3.656;2023-08-20T06:49:34;16.02;;;5.97;;
27543;SDS011;17996;51.056;3.656;2023-08-20T06:52:00;14.27;;;6.70;;
27543;SDS011;17996;51.056;3.656;2023-08-20T06:54:26;21.67;;;6.85;;
27543;SDS011;17996;51.056;3.656;2023-08-20T06:56:51;19.83;;;7.03;;
27543;SDS011;17996;51.056;3.656;2023-08-20T06:59:17;15.77;;;6.93;;
27543;SDS011;17996;51.056;3.656;2023-08-20T07:01:43;10.93;;;5.53;;
27543;SDS011;17996;51.056;3.656;2023-08-20T07:04:09;21.48;;;6.75;;
27543;SDS011;17996;51.056;3.656;2023-08-20T07:06:35;24.45;;;8.63;;
27543;SDS011;17996;51.056;3.656;2023-08-20T07:09:00;14.32;;;6.32;;
27543;SDS011;17996;51.056;3.656;2023-08-20T07:11:27;20.83;;;7.55;;
27543;SDS011;17996;51.056;3.656;2023-08-20T07:13:53;20.40;;;6.40;;
27543;SDS011;17996;51.056;3.656;2023-08-20T07:16:18;24.73;;;6.70;;
27543;SDS011;17996;51.056;3.656;2023-08-20T07:18:44;21.77;;;6.60;;
27543;SDS011;17996;51.056;3.656;2023-08-20T07:21:10;17.23;;;6.40;;
27543;SDS011;17996;51.056;3.656;2023-08-20T07:23:35;21.27;;;6.65;;
27543;SDS011;17996;51.056;3.656;2023-08-20T07:26:08;12.75;;;6.15;;
27543;SDS011;17996;51.056;3.656;2023-08-20T07:28:35;18.83;;;6.20;;
27543;SDS011;17996;51.056;3.656;2023-08-20T07:31:20;14.57;;;6.40;;
27543;SDS011;17996;51.056;3.656;2023-08-20T07:33:46;26.70;;;6.78;;
27543;SDS011;17996;51.056;3.656;2023-08-20T07:36:13;15.15;;;6.78;;
27543;SDS011;17996;51.056;3.656;2023-08-20T07:38:39;17.30;;;6.75;;
27543;SDS011;17996;51.056;3.656;2023-08-20T07:41:07;16.88;;;6.05;;
27543;SDS011;17996;51.056;3.656;2023-08-20T07:46:03;21.77;;;7.03;;
27543;SDS011;17996;51.056;3.656;2023-08-20T07:48:29;13.65;;;6.13;;
27543;SDS011;17996;51.056;3.656;2023-08-20T07:50:55;20.27;;;7.00;;
27543;SDS011;17996;51.056;3.656;2023-08-20T07:53:20;26.45;;;7.05;;
27543;SDS011;17996;51.056;3.656;2023-08-20T07:55:46;17.13;;;5.90;;
27543;SDS011;17996;51.056;3.656;2023-08-20T07:58:12;18.23;;;5.80;;
27543;SDS011;17996;51.056;3.656;2023-08-20T08:00:37;18.95;;;5.78;;
27543;SDS011;17996;51.056;3.656;2023-08-20T08:03:03;12.07;;;5.43;;
27543;SDS011;17996;51.056;3.656;2023-08-20T08:05:29;13.40;;;5.50;;
27543;SDS011;17996;51.056;3.656;2023-08-20T08:07:55;13.20;;;5.15;;
27543;SDS011;17996;51.056;3.656;2023-08-20T08:10:21;14.48;;;4.88;;
27543;SDS011;17996;51.056;3.656;2023-08-20T08:12:46;13.43;;;5.60;;
27543;SDS011;17996;51.056;3.656;2023-08-20T08:15:12;11.77;;;5.15;;
27543;SDS011;17996;51.056;3.656;2023-08-20T08:17:38;16.15;;;5.38;;
27543;SDS011;17996;51.056;3.656;2023-08-20T08:20:04;16.00;;;5.65;;
27543;SDS011;17996;51.056;3.656;2023-08-20T08:22:31;14.88;;;5.10;;
27543;SDS011;17996;51.056;3.656;2023-08-20T08:24:56;22.70;;;5.95;;
27543;SDS011;17996;51.056;3.656;2023-08-20T08:27:22;12.02;;;5.05;;
27543;SDS011;17996;51.056;3.656;2023-08-20T08:29:48;16.25;;;4.75;;
27543;SDS011;17996;51.056;3.656;2023-08-20T08:32:14;13.82;;;5.13;;
27543;SDS011;17996;51.056;3.656;2023-08-20T08:34:40;10.98;;;3.97;;
27543;SDS011;17996;51.056;3.656;2023-08-20T08:37:05;11.27;;;4.65;;
27543;SDS011;17996;51.056;3.656;2023-08-20T08:39:32;15.68;;;6.05;;
27543;SDS011;17996;51.056;3.656;2023-08-20T08:42:01;19.58;;;5.82;;
27543;SDS011;17996;51.056;3.656;2023-08-20T08:44:30;12.88;;;3.95;;
27543;SDS011;17996;51.056;3.656;2023-08-20T08:47:04;14.52;;;4.65;;
27543;SDS011;17996;51.056;3.656;2023-08-20T08:49:33;15.40;;;3.67;;
27543;SDS011;17996;51.056;3.656;2023-08-20T08:51:59;12.98;;;3.88;;
27543;SDS011;17996;51.056;3.656;2023-08-20T08:54:26;14.30;;;3.15;;
27543;SDS011;17996;51.056;3.656;2023-08-20T08:56:52;13.43;;;3.22;;
27543;SDS011;17996;51.056;3.656;2023-08-20T08:59:18;12.60;;;2.95;;
27543;SDS011;17996;51.056;3.656;2023-08-20T09:01:45;9.45;;;2.78;;
27543;SDS011;17996;51.056;3.656;2023-08-20T09:04:11;9.52;;;2.45;;
27543;SDS011;17996;51.056;3.656;2023-08-20T09:06:49;10.57;;;2.90;;
27543;SDS011;17996;51.056;3.656;2023-08-20T09:09:16;16.95;;;3.47;;
27543;SDS011;17996;51.056;3.656;2023-08-20T09:11:44;10.15;;;2.78;;
27543;SDS011;17996;51.056;3.656;2023-08-20T09:14:31;10.82;;;2.63;;
27543;SDS011;17996;51.056;3.656;2023-08-20T09:16:59;8.48;;;2.30;;
27543;SDS011;17996;51.056;3.656;2023-08-20T09:19:29;12.93;;;3.03;;
27543;SDS011;17996;51.056;3.656;2023-08-20T09:22:00;11.05;;;2.50;;
27543;SDS011;17996;51.056;3.656;2023-08-20T09:24:26;12.18;;;2.97;;
27543;SDS011;17996;51.056;3.656;2023-08-20T09:27:17;7.55;;;2.05;;
27543;SDS011;17996;51.056;3.656;2023-08-20T09:29:50;13.07;;;2.10;;
27543;SDS011;17996;51.056;3.656;2023-08-20T09:32:19;10.25;;;2.33;;
27543;SDS011;17996;51.056;3.656;2023-08-20T09:34:47;6.82;;;1.77;;
27543;SDS011;17996;51.056;3.656;2023-08-20T09:37:14;10.68;;;2.03;;
27543;SDS011;17996;51.056;3.656;2023-08-20T09:39:41;7.40;;;1.85;;
27543;SDS011;17996;51.056;3.656;2023-08-20T09:42:07;7.57;;;1.88;;
27543;SDS011;17996;51.056;3.656;2023-08-20T09:44:34;12.02;;;2.58;;
27543;SDS011;17996;51.056;3.656;2023-08-20T09:47:11;7.65;;;2.00;;
27543;SDS011;17996;51.056;3.656;2023-08-20T09:49:45;8.48;;;2.08;;
27543;SDS011;17996;51.056;3.656;2023-08-20T09:52:14;8.38;;;1.70;;
27543;SDS011;17996;51.056;3.656;2023-08-20T09:57:32;5.88;;;1.80;;
27543;SDS011;17996;51.056;3.656;2023-08-20T10:00:00;11.00;;;1.63;;
27543;SDS011;17996;51.056;3.656;2023-08-20T10:02:27;9.98;;;1.73;;
27543;SDS011;17996;51.056;3.656;2023-08-20T10:04:54;5.57;;;1.58;;
27543;SDS011;17996;51.056;3.656;2023-08-20T10:07:20;4.10;;;1.20;;
27543;SDS011;17996;51.056;3.656;2023-08-20T10:09:49;5.55;;;1.30;;
27543;SDS011;17996;51.056;3.656;2023-08-20T10:12:16;5.85;;;1.58;;
27543;SDS011;17996;51.056;3.656;2023-08-20T10:14:43;9.82;;;1.55;;
27543;SDS011;17996;51.056;3.656;2023-08-20T10:17:09;7.32;;;1.40;;
27543;SDS011;17996;51.056;3.656;2023-08-20T10:19:37;9.35;;;1.65;;
27543;SDS011;17996;51.056;3.656;2023-08-20T10:22:03;12.25;;;1.75;;
27543;SDS011;17996;51.056;3.656;2023-08-20T10:27:34;8.30;;;1.40;;
27543;SDS011;17996;51.056;3.656;2023-08-20T10:30:01;9.38;;;1.92;;
27543;SDS011;17996;51.056;3.656;2023-08-20T10:32:45;4.75;;;1.88;;
27543;SDS011;17996;51.056;3.656;2023-08-20T10:35:11;6.88;;;1.67;;
27543;SDS011;17996;51.056;3.656;2023-08-20T10:37:38;6.30;;;1.50;;
27543;SDS011;17996;51.056;3.656;2023-08-20T10:40:05;14.05;;;1.92;;
27543;SDS011;17996;51.056;3.656;2023-08-20T10:42:32;7.90;;;1.60;;
27543;SDS011;17996;51.056;3.656;2023-08-20T10:45:07;8.07;;;1.80;;
27543;SDS011;17996;51.056;3.656;2023-08-20T10:47:41;5.40;;;1.50;;
27543;SDS011;17996;51.056;3.656;2023-08-20T10:50:08;4.40;;;1.20;;
27543;SDS011;17996;51.056;3.656;2023-08-20T10:52:39;7.88;;;1.70;;
27543;SDS011;17996;51.056;3.656;2023-08-20T10:55:07;8.77;;;1.65;;
27543;SDS011;17996;51.056;3.656;2023-08-20T10:57:36;11.48;;;1.95;;
27543;SDS011;17996;51.056;3.656;2023-08-20T11:00:03;7.50;;;2.00;;
27543;SDS011;17996;51.056;3.656;2023-08-20T11:02:39;10.65;;;2.33;;
27543;SDS011;17996;51.056;3.656;2023-08-20T11:05:20;7.43;;;1.85;;
27543;SDS011;17996;51.056;3.656;2023-08-20T11:07:50;7.95;;;1.90;;
27543;SDS011;17996;51.056;3.656;2023-08-20T11:10:16;6.30;;;2.00;;
27543;SDS011;17996;51.056;3.656;2023-08-20T11:12:43;4.43;;;1.77;;
27543;SDS011;17996;51.056;3.656;2023-08-20T11:15:11;8.65;;;2.45;;
27543;SDS011;17996;51.056;3.656;2023-08-20T11:17:45;4.70;;;1.48;;
27543;SDS011;17996;51.056;3.656;2023-08-20T11:20:13;9.05;;;1.80;;
27543;SDS011;17996;51.056;3.656;2023-08-20T11:22:40;13.02;;;2.15;;
27543;SDS011;17996;51.056;3.656;2023-08-20T11:25:10;6.35;;;1.60;;
27543;SDS011;17996;51.056;3.656;2023-08-20T11:27:40;5.43;;;1.95;;
27543;SDS011;17996;51.056;3.656;2023-08-20T11:30:07;7.45;;;1.90;;
27543;SDS011;17996;51.056;3.656;2023-08-20T11:32:34;4.93;;;1.60;;
27543;SDS011;17996;51.056;3.656;2023-08-20T11:35:01;13.05;;;2.20;;
27543;SDS011;17996;51.056;3.656;2023-08-20T11:37:27;7.03;;;1.77;;
27543;SDS011;17996;51.056;3.656;2023-08-20T11:39:53;9.30;;;1.65;;
27543;SDS011;17996;51.056;3.656;2023-08-20T11:42:18;5.97;;;1.42;;
27543;SDS011;17996;51.056;3.656;2023-08-20T11:44:45;8.27;;;2.10;;
27543;SDS011;17996;51.056;3.656;2023-08-20T11:47:18;7.82;;;1.98;;
27543;SDS011;17996;51.056;3.656;2023-08-20T11:49:44;7.50;;;1.83;;
27543;SDS011;17996;51.056;3.656;2023-08-20T11:52:10;8.20;;;2.20;;
27543;SDS011;17996;51.056;3.656;2023-08-20T11:54:38;7.43;;;1.80;;
27543;SDS011;17996;51.056;3.656;2023-08-20T11:57:04;8.88;;;1.80;;
27543;SDS011;17996;51.056;3.656;2023-08-20T11:59:31;6.05;;;2.53;;
27543;SDS011;17996;51.056;3.656;2023-08-20T12:01:58;8.77;;;2.53;;
27543;SDS011;17996;51.056;3.656;2023-08-20T12:04:26;8.87;;;2.13;;
27543;SDS011;17996;51.056;3.656;2023-08-20T12:09:30;6.82;;;1.90;;
27543;SDS011;17996;51.056;3.656;2023-08-20T12:11:58;10.35;;;1.77;;
27543;SDS011;17996;51.056;3.656;2023-08-20T12:14:24;8.07;;;1.98;;
27543;SDS011;17996;51.056;3.656;2023-08-20T12:16:50;6.22;;;1.75;;
27543;SDS011;17996;51.056;3.656;2023-08-20T12:19:16;8.80;;;2.03;;
27543;SDS011;17996;51.056;3.656;2023-08-20T12:21:42;7.88;;;1.85;;
27543;SDS011;17996;51.056;3.656;2023-08-20T12:24:08;7.07;;;1.75;;
27543;SDS011;17996;51.056;3.656;2023-08-20T12:26:35;6.72;;;1.80;;
27543;SDS011;17996;51.056;3.656;2023-08-20T12:29:04;6.13;;;1.83;;
27543;SDS011;17996;51.056;3.656;2023-08-20T12:31:31;8.13;;;1.98;;
27543;SDS011;17996;51.056;3.656;2023-08-20T12:33:57;7.70;;;1.70;;
27543;SDS011;17996;51.056;3.656;2023-08-20T12:36:23;5.00;;;1.52;;
27543;SDS011;17996;51.056;3.656;2023-08-20T12:38:48;9.20;;;2.03;;
27543;SDS011;17996;51.056;3.656;2023-08-20T12:41:14;7.10;;;1.90;;
27543;SDS011;17996;51.056;3.656;2023-08-20T12:43:40;7.70;;;1.95;;
27543;SDS011;17996;51.056;3.656;2023-08-20T12:46:06;8.38;;;1.65;;
27543;SDS011;17996;51.056;3.656;2023-08-20T12:48:32;5.40;;;1.75;;
27543;SDS011;17996;51.056;3.656;2023-08-20T12:50:57;6.70;;;2.00;;
27543;SDS011;17996;51.056;3.656;2023-08-20T12:53:23;8.68;;;2.22;;
27543;SDS011;17996;51.056;3.656;2023-08-20T12:55:49;6.80;;;1.70;;
27543;SDS011;17996;51.056;3.656;2023-08-20T12:58:15;7.63;;;1.35;;
27543;SDS011;17996;51.056;3.656;2023-08-20T13:00:41;6.72;;;1.65;;
27543;SDS011;17996;51.056;3.656;2023-08-20T13:03:07;8.10;;;1.95;;
27543;SDS011;17996;51.056;3.656;2023-08-20T13:05:33;6.00;;;1.70;;
27543;SDS011;17996;51.056;3.656;2023-08-20T13:07:59;8.52;;;1.75;;
27543;SDS011;17996;51.056;3.656;2023-08-20T13:10:25;10.75;;;2.22;;
27543;SDS011;17996;51.056;3.656;2023-08-20T13:12:51;7.47;;;2.00;;
27543;SDS011;17996;51.056;3.656;2023-08-20T13:15:19;7.35;;;2.17;;
27543;SDS011;17996;51.056;3.656;2023-08-20T13:17:46;10.40;;;2.08;;
27543;SDS011;17996;51.056;3.656;2023-08-20T13:20:13;3.65;;;1.45;;
27543;SDS011;17996;51.056;3.656;2023-08-20T13:22:40;11.85;;;1.90;;
27543;SDS011;17996;51.056;3.656;2023-08-20T13:25:06;7.68;;;1.80;;
27543;SDS011;17996;51.056;3.656;2023-08-20T13:27:32;9.05;;;1.52;;
27543;SDS011;17996;51.056;3.656;2023-08-20T13:29:58;3.72;;;1.60;;
27543;SDS011;17996;51.056;3.656;2023-08-20T13:32:24;6.28;;;1.95;;
27543;SDS011;17996;51.056;3.656;2023-08-20T13:34:50;7.57;;;1.60;;
27543;SDS011;17996;51.056;3.656;2023-08-20T13:37:17;8.82;;;1.70;;
27543;SDS011;17996;51.056;3.656;2023-08-20T13:39:43;10.50;;;2.90;;
27543;SDS011;17996;51.056;3.656;2023-08-20T13:42:08;8.65;;;1.98;;
27543;SDS011;17996;51.056;3.656;2023-08-20T13:44:34;13.35;;;2.05;;
27543;SDS011;17996;51.056;3.656;2023-08-20T13:47:00;11.13;;;2.45;;
27543;SDS011;17996;51.056;3.656;2023-08-20T13:49:26;8.48;;;1.98;;
27543;SDS011;17996;51.056;3.656;2023-08-20T13:51:51;8.45;;;1.95;;
27543;SDS011;17996;51.056;3.656;2023-08-20T13:54:17;6.95;;;1.98;;
27543;SDS011;17996;51.056;3.656;2023-08-20T13:56:43;6.45;;;1.90;;
27543;SDS011;17996;51.056;3.656;2023-08-20T13:59:11;11.98;;;2.67;;
27543;SDS011;17996;51.056;3.656;2023-08-20T14:01:37;18.80;;;2.80;;
27543;SDS011;17996;51.056;3.656;2023-08-20T14:04:03;20.60;;;3.78;;
27543;SDS011;17996;51.056;3.656;2023-08-20T14:06:29;24.70;;;3.75;;
27543;SDS011;17996;51.056;3.656;2023-08-20T14:08:55;14.70;;;3.13;;
27543;SDS011;17996;51.056;3.656;2023-08-20T14:11:20;16.58;;;3.25;;
27543;SDS011;17996;51.056;3.656;2023-08-20T14:13:47;16.23;;;3.30;;
27543;SDS011;17996;51.056;3.656;2023-08-20T14:16:13;14.23;;;3.45;;
27543;SDS011;17996;51.056;3.656;2023-08-20T14:18:39;13.68;;;2.85;;
27543;SDS011;17996;51.056;3.656;2023-08-20T14:21:05;19.95;;;3.92;;
27543;SDS011;17996;51.056;3.656;2023-08-20T14:23:31;16.52;;;2.78;;
27543;SDS011;17996;51.056;3.656;2023-08-20T14:25:56;8.98;;;3.15;;
27543;SDS011;17996;51.056;3.656;2023-08-20T14:28:22;17.88;;;3.78;;
27543;SDS011;17996;51.056;3.656;2023-08-20T14:30:48;15.07;;;3.72;;
27543;SDS011;17996;51.056;3.656;2023-08-20T14:33:19;15.57;;;3.20;;
27543;SDS011;17996;51.056;3.656;2023-08-20T14:35:45;15.55;;;3.22;;
27543;SDS011;17996;51.056;3.656;2023-08-20T14:38:11;16.48;;;3.22;;
27543;SDS011;17996;51.056;3.656;2023-08-20T14:40:38;14.63;;;2.88;;
27543;SDS011;17996;51.056;3.656;2023-08-20T14:43:08;12.98;;;3.20;;
27543;SDS011;17996;51.056;3.656;2023-08-20T14:45:34;13.30;;;3.10;;
27543;SDS011;17996;51.056;3.656;2023-08-20T14:48:00;14.85;;;3.05;;
27543;SDS011;17996;51.056;3.656;2023-08-20T14:50:26;11.98;;;2.70;;
27543;SDS011;17996;51.056;3.656;2023-08-20T14:52:52;11.05;;;2.45;;
27543;SDS011;17996;51.056;3.656;2023-08-20T14:55:18;17.42;;;3.28;;
27543;SDS011;17996;51.056;3.656;2023-08-20T14:57:44;15.10;;;3.08;;
27543;SDS011;17996;51.056;3.656;2023-08-20T15:00:11;11.43;;;2.72;;